< < Back
Terminal Aerodrome Forecast


Current Version              Previous Versions:   1  2  3  4  5  6  7  8  9  

Terminal Aerodrome Forecast

432
FTUS44 KOHX 312300
TAFBNA
TAF
KBNA 312320Z 0100/0124 32008KT P6SM SCT080
     FM010300 VRB04KT P6SM SCT150
     FM011500 09008KT P6SM FEW100=

Latest METAR

857
SAUS70 KWBC 010100 RRP
MTRBNA
METAR KBNA 010053Z 35005KT 10SM FEW085 SCT250 22/06 A2990 RMK AO2 SLP120
T02220061


USA.gov is the U.S. government's official web portal to all federal, state and local government web resources and services.